sensor_id;sensor_type;location;lat;lon;timestamp;pressure;altitude;pressure_sealevel;temperature;humidity
76201;BME280;64981;52.930;9.266;2023-11-21T00:01:37;100670.72;;;9.26;84.13
76201;BME280;64981;52.930;9.266;2023-11-21T00:04:03;100671.34;;;9.20;84.72
76201;BME280;64981;52.930;9.266;2023-11-21T00:06:28;100673.16;;;9.19;84.72
76201;BME280;64981;52.930;9.266;2023-11-21T00:08:56;100671.56;;;9.27;84.55
76201;BME280;64981;52.930;9.266;2023-11-21T00:11:21;100675.78;;;9.19;84.55
76201;BME280;64981;52.930;9.266;2023-11-21T00:13:47;100672.53;;;9.25;84.94
76201;BME280;64981;52.930;9.266;2023-11-21T00:16:13;100673.50;;;9.24;84.75
76201;BME280;64981;52.930;9.266;2023-11-21T00:18:38;100672.06;;;9.30;84.68
76201;BME280;64981;52.930;9.266;2023-11-21T00:21:04;100666.75;;;9.22;84.75
76201;BME280;64981;52.930;9.266;2023-11-21T00:23:30;100670.28;;;9.31;84.48
76201;BME280;64981;52.930;9.266;2023-11-21T00:25:56;100674.53;;;9.32;84.42
76201;BME280;64981;52.930;9.266;2023-11-21T00:28:22;100679.47;;;9.27;84.43
76201;BME280;64981;52.930;9.266;2023-11-21T00:30:47;100672.06;;;9.30;84.58
76201;BME280;64981;52.930;9.266;2023-11-21T00:33:13;100670.28;;;9.31;84.26
76201;BME280;64981;52.930;9.266;2023-11-21T00:35:39;100667.97;;;9.36;84.57
76201;BME280;64981;52.930;9.266;2023-11-21T00:38:04;100665.97;;;9.30;84.39
76201;BME280;64981;52.930;9.266;2023-11-21T00:40:30;100673.06;;;9.29;84.52
76201;BME280;64981;52.930;9.266;2023-11-21T00:42:56;100676.53;;;9.30;84.72
76201;BME280;64981;52.930;9.266;2023-11-21T00:45:21;100664.31;;;9.29;84.28
76201;BME280;64981;52.930;9.266;2023-11-21T00:47:47;100675.06;;;9.35;84.50
76201;BME280;64981;52.930;9.266;2023-11-21T00:50:12;100670.09;;;9.32;84.43
76201;BME280;64981;52.930;9.266;2023-11-21T00:52:38;100678.84;;;9.33;84.70
76201;BME280;64981;52.930;9.266;2023-11-21T00:55:05;100675.09;;;9.43;83.87
76201;BME280;64981;52.930;9.266;2023-11-21T00:57:33;100679.59;;;9.25;84.36
76201;BME280;64981;52.930;9.266;2023-11-21T00:59:58;100694.09;;;9.21;84.74
76201;BME280;64981;52.930;9.266;2023-11-21T01:02:24;100695.59;;;9.23;85.32
76201;BME280;64981;52.930;9.266;2023-11-21T01:04:51;100692.16;;;9.31;84.84
76201;BME280;64981;52.930;9.266;2023-11-21T01:07:16;100690.16;;;9.25;84.91
76201;BME280;64981;52.930;9.266;2023-11-21T01:09:42;100700.16;;;9.21;85.36
76201;BME280;64981;52.930;9.266;2023-11-21T01:12:09;100700.69;;;9.25;84.69
76201;BME280;64981;52.930;9.266;2023-11-21T01:14:35;100709.81;;;9.31;85.30
76201;BME280;64981;52.930;9.266;2023-11-21T01:17:02;100708.06;;;9.21;85.15
76201;BME280;64981;52.930;9.266;2023-11-21T01:19:29;100711.09;;;9.27;85.52
76201;BME280;64981;52.930;9.266;2023-11-21T01:21:55;100719.56;;;9.38;85.17
76201;BME280;64981;52.930;9.266;2023-11-21T01:24:21;100720.84;;;9.34;85.06
76201;BME280;64981;52.930;9.266;2023-11-21T01:26:46;100715.66;;;9.24;85.39
76201;BME280;64981;52.930;9.266;2023-11-21T01:29:12;100728.25;;;9.31;85.61
76201;BME280;64981;52.930;9.266;2023-11-21T01:31:38;100719.66;;;9.29;85.61
76201;BME280;64981;52.930;9.266;2023-11-21T01:34:03;100726.22;;;9.24;85.77
76201;BME280;64981;52.930;9.266;2023-11-21T01:36:31;100723.25;;;9.27;85.09
76201;BME280;64981;52.930;9.266;2023-11-21T01:38:59;100716.56;;;9.33;84.92
76201;BME280;64981;52.930;9.266;2023-11-21T01:41:26;100723.00;;;9.31;85.39
76201;BME280;64981;52.930;9.266;2023-11-21T01:43:52;100718.69;;;9.30;85.73
76201;BME280;64981;52.930;9.266;2023-11-21T01:46:20;100724.28;;;9.27;85.46
76201;BME280;64981;52.930;9.266;2023-11-21T01:48:48;100725.09;;;9.27;85.44
76201;BME280;64981;52.930;9.266;2023-11-21T01:51:14;100726.13;;;9.34;85.33
76201;BME280;64981;52.930;9.266;2023-11-21T01:53:40;100724.00;;;9.38;85.10
76201;BME280;64981;52.930;9.266;2023-11-21T01:56:07;100726.94;;;9.35;85.36
76201;BME280;64981;52.930;9.266;2023-11-21T01:58:34;100734.19;;;9.33;85.08
76201;BME280;64981;52.930;9.266;2023-11-21T02:00:59;100725.09;;;9.27;85.38
76201;BME280;64981;52.930;9.266;2023-11-21T02:03:25;100740.00;;;9.36;85.21
76201;BME280;64981;52.930;9.266;2023-11-21T02:05:53;100741.88;;;9.26;85.91
76201;BME280;64981;52.930;9.266;2023-11-21T02:08:19;100740.09;;;9.27;85.53
76201;BME280;64981;52.930;9.266;2023-11-21T02:10:45;100742.19;;;9.23;85.38
76201;BME280;64981;52.930;9.266;2023-11-21T02:13:11;100746.72;;;9.31;85.17
76201;BME280;64981;52.930;9.266;2023-11-21T02:15:37;100748.66;;;9.29;85.59
76201;BME280;64981;52.930;9.266;2023-11-21T02:18:04;100745.72;;;9.32;85.64
76201;BME280;64981;52.930;9.266;2023-11-21T02:20:31;100741.28;;;9.32;85.42
76201;BME280;64981;52.930;9.266;2023-11-21T02:23:00;100745.34;;;9.27;85.64
76201;BME280;64981;52.930;9.266;2023-11-21T02:25:28;100754.22;;;9.25;85.70
76201;BME280;64981;52.930;9.266;2023-11-21T02:27:56;100754.41;;;9.24;85.57
76201;BME280;64981;52.930;9.266;2023-11-21T02:30:22;100750.00;;;9.33;85.72
76201;BME280;64981;52.930;9.266;2023-11-21T02:32:51;100760.56;;;9.33;85.75
76201;BME280;64981;52.930;9.266;2023-11-21T02:35:20;100765.31;;;9.29;85.86
76201;BME280;64981;52.930;9.266;2023-11-21T02:37:48;100767.78;;;9.31;85.92
76201;BME280;64981;52.930;9.266;2023-11-21T02:40:14;100768.81;;;9.38;85.55
76201;BME280;64981;52.930;9.266;2023-11-21T02:42:44;100766.69;;;9.41;84.92
76201;BME280;64981;52.930;9.266;2023-11-21T02:45:10;100772.16;;;9.40;85.42
76201;BME280;64981;52.930;9.266;2023-11-21T02:47:39;100766.69;;;9.41;85.40
76201;BME280;64981;52.930;9.266;2023-11-21T02:50:05;100775.22;;;9.35;85.68
76201;BME280;64981;52.930;9.266;2023-11-21T02:52:34;100782.00;;;9.38;85.74
76201;BME280;64981;52.930;9.266;2023-11-21T02:55:01;100777.19;;;9.33;85.54
76201;BME280;64981;52.930;9.266;2023-11-21T02:57:27;100776.59;;;9.39;85.70
76201;BME280;64981;52.930;9.266;2023-11-21T02:59:52;100783.72;;;9.47;85.53
76201;BME280;64981;52.930;9.266;2023-11-21T03:02:18;100784.09;;;9.52;85.32
76201;BME280;64981;52.930;9.266;2023-11-21T03:04:44;100781.34;;;9.61;84.97
76201;BME280;64981;52.930;9.266;2023-11-21T03:07:09;100785.19;;;9.67;84.24
76201;BME280;64981;52.930;9.266;2023-11-21T03:09:35;100792.63;;;9.71;84.43
76201;BME280;64981;52.930;9.266;2023-11-21T03:12:01;100791.91;;;9.61;84.79
76201;BME280;64981;52.930;9.266;2023-11-21T03:14:26;100792.91;;;9.68;84.34
76201;BME280;64981;52.930;9.266;2023-11-21T03:16:52;100785.69;;;9.70;84.08
76201;BME280;64981;52.930;9.266;2023-11-21T03:19:17;100781.56;;;9.68;84.48
76201;BME280;64981;52.930;9.266;2023-11-21T03:21:43;100797.00;;;9.63;84.70
76201;BME280;64981;52.930;9.266;2023-11-21T03:24:09;100805.03;;;9.79;83.68
76201;BME280;64981;52.930;9.266;2023-11-21T03:26:34;100802.75;;;9.84;83.67
76201;BME280;64981;52.930;9.266;2023-11-21T03:29:00;100816.53;;;9.70;84.67
76201;BME280;64981;52.930;9.266;2023-11-21T03:31:25;100811.25;;;9.70;84.64
76201;BME280;64981;52.930;9.266;2023-11-21T03:33:52;100820.13;;;9.69;84.64
76201;BME280;64981;52.930;9.266;2023-11-21T03:36:19;100813.88;;;9.70;84.74
76201;BME280;64981;52.930;9.266;2023-11-21T03:38:45;100818.09;;;9.63;84.57
76201;BME280;64981;52.930;9.266;2023-11-21T03:41:11;100826.16;;;9.36;85.59
76201;BME280;64981;52.930;9.266;2023-11-21T03:43:37;100838.16;;;9.56;84.71
76201;BME280;64981;52.930;9.266;2023-11-21T03:46:03;100841.41;;;9.50;85.29
76201;BME280;64981;52.930;9.266;2023-11-21T03:48:29;100845.47;;;9.62;84.42
76201;BME280;64981;52.930;9.266;2023-11-21T03:50:55;100848.22;;;9.52;83.93
76201;BME280;64981;52.930;9.266;2023-11-21T03:53:20;100849.78;;;9.45;83.50
76201;BME280;64981;52.930;9.266;2023-11-21T03:55:46;100854.75;;;9.48;83.29
76201;BME280;64981;52.930;9.266;2023-11-21T03:58:12;100869.16;;;9.36;83.64
76201;BME280;64981;52.930;9.266;2023-11-21T04:00:38;100873.59;;;9.36;83.02
76201;BME280;64981;52.930;9.266;2023-11-21T04:03:04;100873.38;;;9.29;83.08
76201;BME280;64981;52.930;9.266;2023-11-21T04:05:30;100884.88;;;9.28;82.83
76201;BME280;64981;52.930;9.266;2023-11-21T04:07:56;100879.31;;;9.31;82.00
76201;BME280;64981;52.930;9.266;2023-11-21T04:10:22;100878.56;;;9.21;83.07
76201;BME280;64981;52.930;9.266;2023-11-21T04:12:47;100882.53;;;9.07;83.53
76201;BME280;64981;52.930;9.266;2023-11-21T04:15:13;100893.09;;;9.25;82.22
76201;BME280;64981;52.930;9.266;2023-11-21T04:17:40;100902.13;;;9.05;83.48
76201;BME280;64981;52.930;9.266;2023-11-21T04:20:07;100909.41;;;9.11;83.05
76201;BME280;64981;52.930;9.266;2023-11-21T04:22:37;100909.41;;;9.11;82.97
76201;BME280;64981;52.930;9.266;2023-11-21T04:25:08;100920.69;;;9.03;83.10
76201;BME280;64981;52.930;9.266;2023-11-21T04:27:34;100919.91;;;8.66;83.20
76201;BME280;64981;52.930;9.266;2023-11-21T04:30:00;100925.97;;;8.76;83.43
76201;BME280;64981;52.930;9.266;2023-11-21T04:32:25;100928.41;;;8.87;83.06
76201;BME280;64981;52.930;9.266;2023-11-21T04:34:51;100935.91;;;8.82;82.97
76201;BME280;64981;52.930;9.266;2023-11-21T04:37:16;100942.81;;;8.93;82.64
76201;BME280;64981;52.930;9.266;2023-11-21T04:39:42;100942.34;;;8.97;82.43
76201;BME280;64981;52.930;9.266;2023-11-21T04:42:08;100952.97;;;8.78;82.16
76201;BME280;64981;52.930;9.266;2023-11-21T04:44:33;100955.31;;;8.81;82.19
76201;BME280;64981;52.930;9.266;2023-11-21T04:46:59;100950.00;;;8.54;82.88
76201;BME280;64981;52.930;9.266;2023-11-21T04:49:24;100953.56;;;8.62;81.71
76201;BME280;64981;52.930;9.266;2023-11-21T04:51:50;100951.78;;;8.53;82.26
76201;BME280;64981;52.930;9.266;2023-11-21T04:54:15;100954.63;;;8.33;82.52
76201;BME280;64981;52.930;9.266;2023-11-21T04:56:41;100958.56;;;8.56;82.56
76201;BME280;64981;52.930;9.266;2023-11-21T04:59:07;100971.44;;;8.59;81.76
76201;BME280;64981;52.930;9.266;2023-11-21T05:01:32;100970.22;;;8.53;81.47
76201;BME280;64981;52.930;9.266;2023-11-21T05:03:58;100962.81;;;8.39;82.04
76201;BME280;64981;52.930;9.266;2023-11-21T05:06:24;100966.38;;;8.48;81.76
76201;BME280;64981;52.930;9.266;2023-11-21T05:08:49;100976.06;;;8.47;81.78
76201;BME280;64981;52.930;9.266;2023-11-21T05:11:25;100974.81;;;8.51;81.58
76201;BME280;64981;52.930;9.266;2023-11-21T05:13:51;100972.88;;;8.44;81.61
76201;BME280;64981;52.930;9.266;2023-11-21T05:16:17;100980.13;;;8.32;81.31
76201;BME280;64981;52.930;9.266;2023-11-21T05:18:42;100991.31;;;8.44;80.97
76201;BME280;64981;52.930;9.266;2023-11-21T05:21:08;100997.44;;;8.15;82.03
76201;BME280;64981;52.930;9.266;2023-11-21T05:23:34;101000.66;;;8.09;81.52
76201;BME280;64981;52.930;9.266;2023-11-21T05:26:00;101007.56;;;8.01;82.00
76201;BME280;64981;52.930;9.266;2023-11-21T05:28:26;101014.78;;;7.99;82.20
76201;BME280;64981;52.930;9.266;2023-11-21T05:30:51;101015.03;;;8.15;81.45
76201;BME280;64981;52.930;9.266;2023-11-21T05:33:17;101019.22;;;7.89;81.78
76201;BME280;64981;52.930;9.266;2023-11-21T05:35:42;101023.63;;;7.79;82.64
76201;BME280;64981;52.930;9.266;2023-11-21T05:38:08;101021.56;;;8.01;81.19
76201;BME280;64981;52.930;9.266;2023-11-21T05:40:34;101020.56;;;8.02;80.98
76201;BME280;64981;52.930;9.266;2023-11-21T05:42:59;101021.13;;;8.06;80.69
76201;BME280;64981;52.930;9.266;2023-11-21T05:45:25;101031.66;;;7.96;81.96
76201;BME280;64981;52.930;9.266;2023-11-21T05:47:51;101038.03;;;7.94;82.32
76201;BME280;64981;52.930;9.266;2023-11-21T05:50:17;101038.75;;;7.96;81.53
76201;BME280;64981;52.930;9.266;2023-11-21T05:52:45;101047.03;;;8.10;80.72
76201;BME280;64981;52.930;9.266;2023-11-21T05:55:11;101052.44;;;8.18;79.47
76201;BME280;64981;52.930;9.266;2023-11-21T05:57:38;101065.16;;;7.94;79.84
76201;BME280;64981;52.930;9.266;2023-11-21T06:00:06;101063.72;;;7.71;80.89
76201;BME280;64981;52.930;9.266;2023-11-21T06:02:38;101079.41;;;7.82;80.79
76201;BME280;64981;52.930;9.266;2023-11-21T06:05:06;101084.72;;;8.11;78.57
76201;BME280;64981;52.930;9.266;2023-11-21T06:07:32;101093.41;;;7.92;78.57
76201;BME280;64981;52.930;9.266;2023-11-21T06:09:58;101097.53;;;7.85;78.52
76201;BME280;64981;52.930;9.266;2023-11-21T06:12:23;101108.56;;;7.60;79.53
76201;BME280;64981;52.930;9.266;2023-11-21T06:14:49;101110.09;;;7.72;79.77
76201;BME280;64981;52.930;9.266;2023-11-21T06:17:14;101106.03;;;7.49;80.17
76201;BME280;64981;52.930;9.266;2023-11-21T06:19:40;101103.88;;;7.73;79.47
76201;BME280;64981;52.930;9.266;2023-11-21T06:22:05;101121.75;;;7.79;78.53
76201;BME280;64981;52.930;9.266;2023-11-21T06:24:31;101114.56;;;7.81;78.39
76201;BME280;64981;52.930;9.266;2023-11-21T06:26:57;101138.59;;;7.67;79.14
76201;BME280;64981;52.930;9.266;2023-11-21T06:29:22;101135.16;;;7.76;78.62
76201;BME280;64981;52.930;9.266;2023-11-21T06:31:49;101139.44;;;7.37;79.47
76201;BME280;64981;52.930;9.266;2023-11-21T06:34:14;101147.16;;;7.59;79.52
76201;BME280;64981;52.930;9.266;2023-11-21T06:36:40;101142.13;;;7.47;79.12
76201;BME280;64981;52.930;9.266;2023-11-21T06:39:05;101145.38;;;7.70;78.59
76201;BME280;64981;52.930;9.266;2023-11-21T06:41:33;101154.88;;;7.51;79.00
76201;BME280;64981;52.930;9.266;2023-11-21T06:43:59;101157.47;;;7.42;79.35
76201;BME280;64981;52.930;9.266;2023-11-21T06:46:25;101168.53;;;7.45;79.27
76201;BME280;64981;52.930;9.266;2023-11-21T06:48:50;101172.50;;;7.40;79.40
76201;BME280;64981;52.930;9.266;2023-11-21T06:51:16;101169.13;;;7.28;79.94
76201;BME280;64981;52.930;9.266;2023-11-21T06:53:41;101180.31;;;7.21;80.42
76201;BME280;64981;52.930;9.266;2023-11-21T06:56:17;101184.84;;;7.19;80.58
76201;BME280;64981;52.930;9.266;2023-11-21T06:58:45;101183.19;;;6.97;81.09
76201;BME280;64981;52.930;9.266;2023-11-21T07:01:13;101189.59;;;7.25;80.57
76201;BME280;64981;52.930;9.266;2023-11-21T07:03:39;101205.13;;;7.37;80.67
76201;BME280;64981;52.930;9.266;2023-11-21T07:06:05;101207.91;;;7.36;80.47
76201;BME280;64981;52.930;9.266;2023-11-21T07:08:31;101202.41;;;7.18;80.59
76201;BME280;64981;52.930;9.266;2023-11-21T07:10:56;101216.16;;;7.31;80.75
76201;BME280;64981;52.930;9.266;2023-11-21T07:13:22;101215.28;;;7.42;80.21
76201;BME280;64981;52.930;9.266;2023-11-21T07:15:49;101231.03;;;7.42;79.88
76201;BME280;64981;52.930;9.266;2023-11-21T07:18:15;101231.47;;;7.77;78.70
76201;BME280;64981;52.930;9.266;2023-11-21T07:20:40;101232.06;;;7.50;80.07
76201;BME280;64981;52.930;9.266;2023-11-21T07:23:06;101238.19;;;7.40;79.53
76201;BME280;64981;52.930;9.266;2023-11-21T07:25:32;101246.03;;;7.51;79.04
76201;BME280;64981;52.930;9.266;2023-11-21T07:27:59;101252.66;;;7.45;79.23
76201;BME280;64981;52.930;9.266;2023-11-21T07:30:26;101245.91;;;7.32;79.53
76201;BME280;64981;52.930;9.266;2023-11-21T07:32:52;101259.59;;;7.56;78.62
76201;BME280;64981;52.930;9.266;2023-11-21T07:35:18;101257.97;;;7.34;78.56
76201;BME280;64981;52.930;9.266;2023-11-21T07:37:43;101265.00;;;7.34;79.00
76201;BME280;64981;52.930;9.266;2023-11-21T07:40:09;101270.59;;;7.40;78.94
76201;BME280;64981;52.930;9.266;2023-11-21T07:42:37;101270.31;;;7.43;78.75
76201;BME280;64981;52.930;9.266;2023-11-21T07:45:04;101264.81;;;7.46;78.11
76201;BME280;64981;52.930;9.266;2023-11-21T07:47:30;101274.53;;;7.55;77.77
76201;BME280;64981;52.930;9.266;2023-11-21T07:49:55;101281.03;;;7.51;77.41
76201;BME280;64981;52.930;9.266;2023-11-21T07:52:22;101284.44;;;7.42;78.58
76201;BME280;64981;52.930;9.266;2023-11-21T07:54:48;101285.91;;;7.56;78.23
76201;BME280;64981;52.930;9.266;2023-11-21T07:57:13;101290.19;;;7.57;78.12
76201;BME280;64981;52.930;9.266;2023-11-21T07:59:40;101290.25;;;7.67;77.35
76201;BME280;64981;52.930;9.266;2023-11-21T08:02:07;101289.69;;;7.63;78.05
76201;BME280;64981;52.930;9.266;2023-11-21T08:04:33;101291.16;;;7.56;78.58
76201;BME280;64981;52.930;9.266;2023-11-21T08:06:59;101289.78;;;7.61;77.49
76201;BME280;64981;52.930;9.266;2023-11-21T08:09:25;101302.88;;;7.73;77.32
76201;BME280;64981;52.930;9.266;2023-11-21T08:11:51;101303.84;;;7.72;77.35
76201;BME280;64981;52.930;9.266;2023-11-21T08:14:18;101304.28;;;7.56;77.23
76201;BME280;64981;52.930;9.266;2023-11-21T08:16:44;101305.03;;;7.58;77.82
76201;BME280;64981;52.930;9.266;2023-11-21T08:19:10;101297.38;;;7.55;76.89
76201;BME280;64981;52.930;9.266;2023-11-21T08:21:36;101314.97;;;7.54;77.33
76201;BME280;64981;52.930;9.266;2023-11-21T08:24:06;101315.00;;;7.64;77.64
76201;BME280;64981;52.930;9.266;2023-11-21T08:26:31;101314.69;;;7.57;77.66
76201;BME280;64981;52.930;9.266;2023-11-21T08:28:57;101322.25;;;7.72;76.71
76201;BME280;64981;52.930;9.266;2023-11-21T08:31:25;101323.66;;;7.76;76.75
76201;BME280;64981;52.930;9.266;2023-11-21T08:33:51;101330.84;;;7.74;76.89
76201;BME280;64981;52.930;9.266;2023-11-21T08:36:21;101330.00;;;7.73;76.52
76201;BME280;64981;52.930;9.266;2023-11-21T08:38:48;101330.19;;;7.81;76.28
76201;BME280;64981;52.930;9.266;2023-11-21T08:41:14;101342.97;;;7.86;76.58
76201;BME280;64981;52.930;9.266;2023-11-21T08:43:40;101353.72;;;8.03;75.89
76201;BME280;64981;52.930;9.266;2023-11-21T08:46:06;101362.38;;;7.94;76.43
76201;BME280;64981;52.930;9.266;2023-11-21T08:48:36;101365.31;;;8.01;75.44
76201;BME280;64981;52.930;9.266;2023-11-21T08:51:02;101362.53;;;7.93;76.50
76201;BME280;64981;52.930;9.266;2023-11-21T08:53:29;101366.44;;;7.98;76.47
76201;BME280;64981;52.930;9.266;2023-11-21T08:55:54;101372.06;;;8.14;75.57
76201;BME280;64981;52.930;9.266;2023-11-21T08:58:20;101387.13;;;8.12;75.45
76201;BME280;64981;52.930;9.266;2023-11-21T09:00:45;101383.38;;;8.15;75.66
76201;BME280;64981;52.930;9.266;2023-11-21T09:03:12;101396.41;;;7.86;76.32
76201;BME280;64981;52.930;9.266;2023-11-21T09:05:38;101395.94;;;8.02;75.90
76201;BME280;64981;52.930;9.266;2023-11-21T09:08:05;101404.09;;;7.99;76.13
76201;BME280;64981;52.930;9.266;2023-11-21T09:10:30;101407.53;;;7.99;76.46
76201;BME280;64981;52.930;9.266;2023-11-21T09:12:56;101403.81;;;8.23;75.55
76201;BME280;64981;52.930;9.266;2023-11-21T09:15:22;101414.44;;;8.21;75.13
76201;BME280;64981;52.930;9.266;2023-11-21T09:17:47;101415.22;;;8.33;74.89
76201;BME280;64981;52.930;9.266;2023-11-21T09:20:13;101427.53;;;8.32;74.57
76201;BME280;64981;52.930;9.266;2023-11-21T09:22:40;101425.59;;;8.34;74.70
76201;BME280;64981;52.930;9.266;2023-11-21T09:25:06;101421.19;;;8.35;74.27
76201;BME280;64981;52.930;9.266;2023-11-21T09:27:34;101430.16;;;8.32;74.36
76201;BME280;64981;52.930;9.266;2023-11-21T09:30:01;101443.16;;;8.24;74.39
76201;BME280;64981;52.930;9.266;2023-11-21T09:32:27;101441.59;;;8.22;73.72
76201;BME280;64981;52.930;9.266;2023-11-21T09:34:52;101443.72;;;8.28;73.88
76201;BME280;64981;52.930;9.266;2023-11-21T09:37:20;101454.66;;;8.23;74.54
76201;BME280;64981;52.930;9.266;2023-11-21T09:39:46;101462.06;;;8.18;74.49
76201;BME280;64981;52.930;9.266;2023-11-21T09:42:17;101470.97;;;8.47;73.40
76201;BME280;64981;52.930;9.266;2023-11-21T09:44:55;101484.09;;;8.38;73.80
76201;BME280;64981;52.930;9.266;2023-11-21T09:47:24;101477.41;;;8.34;72.92
76201;BME280;64981;52.930;9.266;2023-11-21T09:49:49;101482.59;;;8.45;73.43
76201;BME280;64981;52.930;9.266;2023-11-21T09:52:23;101468.75;;;8.43;72.97
76201;BME280;64981;52.930;9.266;2023-11-21T09:54:52;101476.03;;;8.60;72.15
76201;BME280;64981;52.930;9.266;2023-11-21T09:57:20;101484.88;;;8.59;72.66
76201;BME280;64981;52.930;9.266;2023-11-21T09:59:51;101488.19;;;8.72;72.75
76201;BME280;64981;52.930;9.266;2023-11-21T10:02:17;101493.34;;;8.74;72.66
76201;BME280;64981;52.930;9.266;2023-11-21T10:04:45;101497.59;;;8.75;72.77
76201;BME280;64981;52.930;9.266;2023-11-21T10:07:13;101492.28;;;8.86;71.76
76201;BME280;64981;52.930;9.266;2023-11-21T10:09:41;101494.41;;;9.01;71.55
76201;BME280;64981;52.930;9.266;2023-11-21T10:12:10;101497.81;;;8.83;71.44
76201;BME280;64981;52.930;9.266;2023-11-21T10:14:41;101489.41;;;8.98;71.08
76201;BME280;64981;52.930;9.266;2023-11-21T10:17:10;101496.97;;;8.82;71.20
76201;BME280;64981;52.930;9.266;2023-11-21T10:19:39;101497.38;;;9.17;71.03
76201;BME280;64981;52.930;9.266;2023-11-21T10:22:05;101493.28;;;9.04;72.37
76201;BME280;64981;52.930;9.266;2023-11-21T10:24:32;101498.69;;;8.93;72.20
76201;BME280;64981;52.930;9.266;2023-11-21T10:26:58;101507.84;;;8.98;71.88
76201;BME280;64981;52.930;9.266;2023-11-21T10:29:29;101508.00;;;9.06;71.60
76201;BME280;64981;52.930;9.266;2023-11-21T10:31:55;101515.66;;;9.19;70.79
76201;BME280;64981;52.930;9.266;2023-11-21T10:34:24;101507.97;;;8.97;71.73
76201;BME280;64981;52.930;9.266;2023-11-21T10:36:50;101511.28;;;9.29;70.04
76201;BME280;64981;52.930;9.266;2023-11-21T10:39:19;101509.03;;;9.15;70.17
76201;BME280;64981;52.930;9.266;2023-11-21T10:41:46;101514.81;;;9.09;70.54
76201;BME280;64981;52.930;9.266;2023-11-21T10:44:14;101525.94;;;9.22;69.96
76201;BME280;64981;52.930;9.266;2023-11-21T10:46:46;101522.06;;;9.16;70.25
76201;BME280;64981;52.930;9.266;2023-11-21T10:49:17;101515.00;;;9.27;70.37
76201;BME280;64981;52.930;9.266;2023-11-21T10:51:44;101529.78;;;9.48;70.04
76201;BME280;64981;52.930;9.266;2023-11-21T10:54:09;101521.97;;;9.37;70.58
76201;BME280;64981;52.930;9.266;2023-11-21T10:56:36;101521.50;;;9.22;70.51
76201;BME280;64981;52.930;9.266;2023-11-21T10:59:09;101525.44;;;9.38;69.30
76201;BME280;64981;52.930;9.266;2023-11-21T11:01:45;101527.22;;;9.37;69.79
76201;BME280;64981;52.930;9.266;2023-11-21T11:04:13;101518.34;;;9.29;69.91
76201;BME280;64981;52.930;9.266;2023-11-21T11:06:43;101528.34;;;9.35;70.31
76201;BME280;64981;52.930;9.266;2023-11-21T11:09:13;101529.06;;;9.37;69.43
76201;BME280;64981;52.930;9.266;2023-11-21T11:11:40;101533.38;;;9.47;68.63
76201;BME280;64981;52.930;9.266;2023-11-21T11:14:11;101540.28;;;9.39;68.74
76201;BME280;64981;52.930;9.266;2023-11-21T11:16:39;101546.72;;;9.55;68.01
76201;BME280;64981;52.930;9.266;2023-11-21T11:19:07;101544.59;;;9.30;69.93
76201;BME280;64981;52.930;9.266;2023-11-21T11:21:55;101544.63;;;9.49;68.62
76201;BME280;64981;52.930;9.266;2023-11-21T11:24:36;101550.00;;;9.38;69.64
76201;BME280;64981;52.930;9.266;2023-11-21T11:27:30;101550.97;;;9.37;69.36
76201;BME280;64981;52.930;9.266;2023-11-21T11:30:17;101549.34;;;9.46;69.05
76201;BME280;64981;52.930;9.266;2023-11-21T11:33:06;101550.06;;;9.67;68.85
76201;BME280;64981;52.930;9.266;2023-11-21T11:35:54;101559.41;;;9.81;67.61
76201;BME280;64981;52.930;9.266;2023-11-21T11:38:22;101559.25;;;9.72;67.46
76201;BME280;64981;52.930;9.266;2023-11-21T11:40:53;101561.59;;;9.66;67.95
76201;BME280;64981;52.930;9.266;2023-11-21T11:43:26;101561.72;;;9.55;67.95
76201;BME280;64981;52.930;9.266;2023-11-21T11:45:55;101571.44;;;9.64;67.98
76201;BME280;64981;52.930;9.266;2023-11-21T11:48:22;101568.97;;;9.82;67.88
76201;BME280;64981;52.930;9.266;2023-11-21T11:51:01;101571.88;;;9.69;67.16
76201;BME280;64981;52.930;9.266;2023-11-21T11:53:33;101565.91;;;9.67;67.74
76201;BME280;64981;52.930;9.266;2023-11-21T11:58:47;101576.59;;;9.75;67.92
76201;BME280;64981;52.930;9.266;2023-11-21T12:01:13;101576.19;;;9.79;67.53
76201;BME280;64981;52.930;9.266;2023-11-21T12:03:39;101571.31;;;9.75;67.46
76201;BME280;64981;52.930;9.266;2023-11-21T12:06:05;101570.22;;;9.87;66.85
76201;BME280;64981;52.930;9.266;2023-11-21T12:08:32;101581.50;;;9.89;66.33
76201;BME280;64981;52.930;9.266;2023-11-21T12:10:58;101575.59;;;9.57;66.41
76201;BME280;64981;52.930;9.266;2023-11-21T12:13:23;101579.78;;;9.69;66.79
76201;BME280;64981;52.930;9.266;2023-11-21T12:15:49;101579.47;;;9.62;67.43
76201;BME280;64981;52.930;9.266;2023-11-21T12:18:15;101585.22;;;9.67;67.35
76201;BME280;64981;52.930;9.266;2023-11-21T12:20:41;101586.47;;;9.83;66.64
76201;BME280;64981;52.930;9.266;2023-11-21T12:23:08;101577.97;;;9.69;66.40
76201;BME280;64981;52.930;9.266;2023-11-21T12:25:36;101588.25;;;9.72;65.85
76201;BME280;64981;52.930;9.266;2023-11-21T12:28:02;101590.63;;;9.75;65.78
76201;BME280;64981;52.930;9.266;2023-11-21T12:30:30;101602.13;;;9.74;66.06
76201;BME280;64981;52.930;9.266;2023-11-21T12:32:58;101604.38;;;9.79;65.31
76201;BME280;64981;52.930;9.266;2023-11-21T12:35:29;101607.16;;;9.68;66.28
76201;BME280;64981;52.930;9.266;2023-11-21T12:37:56;101616.31;;;9.73;65.75
76201;BME280;64981;52.930;9.266;2023-11-21T12:40:23;101617.72;;;9.87;65.41
76201;BME280;64981;52.930;9.266;2023-11-21T12:42:53;101617.44;;;9.71;66.23
76201;BME280;64981;52.930;9.266;2023-11-21T12:45:22;101626.84;;;9.64;66.32
76201;BME280;64981;52.930;9.266;2023-11-21T12:50:31;101634.41;;;9.97;65.96
76201;BME280;64981;52.930;9.266;2023-11-21T12:53:02;101645.19;;;9.75;66.55
76201;BME280;64981;52.930;9.266;2023-11-21T12:55:31;101643.28;;;9.77;66.29
76201;BME280;64981;52.930;9.266;2023-11-21T12:57:57;101646.06;;;9.85;66.28
76201;BME280;64981;52.930;9.266;2023-11-21T13:00:34;101659.66;;;9.81;66.13
76201;BME280;64981;52.930;9.266;2023-11-21T13:03:04;101650.03;;;9.70;65.56
76201;BME280;64981;52.930;9.266;2023-11-21T13:05:33;101659.69;;;9.50;65.76